createdAt,value
2023-02-11T00:00:07.361Z,99719.73
2023-02-11T00:02:58.484Z,99714.38
2023-02-11T00:05:29.926Z,99714.20
2023-02-11T00:07:58.538Z,99714.88
2023-02-11T00:10:27.638Z,99719.84
2023-02-11T00:12:56.569Z,99718.46
2023-02-11T00:15:25.476Z,99716.06
2023-02-11T00:17:59.179Z,99718.95
2023-02-11T00:20:27.799Z,99720.78
2023-02-11T00:22:56.515Z,99718.19
2023-02-11T00:25:28.232Z,99720.36
2023-02-11T00:27:56.952Z,99722.59
2023-02-11T00:30:25.539Z,99721.48
2023-02-11T00:32:58.115Z,99724.59
2023-02-11T00:35:27.225Z,99721.33
2023-02-11T00:37:59.336Z,99715.76
2023-02-11T00:40:27.973Z,99712.02
2023-02-11T00:43:04.169Z,99711.45
2023-02-11T00:45:32.865Z,99713.89
2023-02-11T00:48:03.900Z,99713.74
2023-02-11T00:50:35.770Z,99708.46
2023-02-11T00:53:04.460Z,99710.21
2023-02-11T00:55:33.208Z,99708.44
2023-02-11T00:58:02.005Z,99705.91
2023-02-11T01:00:30.632Z,99703.04
2023-02-11T01:02:59.288Z,99696.70
2023-02-11T01:05:31.411Z,99692.77
2023-02-11T01:08:03.198Z,99690.88
2023-02-11T01:10:35.067Z,99686.23
2023-02-11T01:13:04.667Z,99683.52
2023-02-11T01:15:35.877Z,99681.16
2023-02-11T01:18:08.144Z,99676.05
2023-02-11T01:20:41.973Z,99673.37
2023-02-11T01:23:10.911Z,99670.66
2023-02-11T01:25:39.575Z,99668.99
2023-02-11T01:28:20.242Z,99664.48
2023-02-11T01:30:53.425Z,99663.55
2023-02-11T01:33:22.495Z,99663.44
2023-02-11T01:35:54.492Z,99662.79
2023-02-11T01:38:29.354Z,99653.08
2023-02-11T01:41:04.840Z,99649.48
2023-02-11T01:43:36.255Z,99653.25
2023-02-11T01:46:37.224Z,99648.36
2023-02-11T01:49:13.070Z,99652.88
2023-02-11T01:52:09.013Z,99648.61
2023-02-11T01:55:01.263Z,99647.77
2023-02-11T01:57:38.301Z,99641.07
2023-02-11T02:00:24.389Z,99641.85
2023-02-11T02:03:13.680Z,99640.75
2023-02-11T02:09:07.100Z,99637.67
2023-02-11T02:11:36.631Z,99637.35
2023-02-11T02:14:08.883Z,99632.64
2023-02-11T02:16:39.989Z,99626.83
2023-02-11T02:19:46.513Z,99620.23
2023-02-11T02:23:07.863Z,99618.42
2023-02-11T02:25:57.465Z,99613.50
2023-02-11T02:28:44.335Z,99616.43
2023-02-11T02:31:15.808Z,99612.84
2023-02-11T02:33:58.136Z,99615.52
2023-02-11T02:36:44.422Z,99612.59
2023-02-11T02:39:25.010Z,99607.45
2023-02-11T02:42:00.025Z,99605.05
2023-02-11T02:44:32.302Z,99598.55
2023-02-11T02:47:03.366Z,99595.67
2023-02-11T02:49:31.982Z,99598.63
2023-02-11T02:52:18.936Z,99601.48
2023-02-11T02:55:03.107Z,99600.41
2023-02-11T02:57:42.538Z,99598.89
2023-02-11T03:00:15.142Z,99600.27
2023-02-11T03:03:15.663Z,99600.12
2023-02-11T03:05:53.464Z,99602.31
2023-02-11T03:08:38.420Z,99597.02
2023-02-11T03:11:09.767Z,99589.99
2023-02-11T03:13:41.037Z,99591.32
2023-02-11T03:16:16.558Z,99592.70
2023-02-11T03:18:51.084Z,99595.13
2023-02-11T03:21:21.361Z,99595.81
2023-02-11T03:24:01.046Z,99599.21
2023-02-11T03:26:32.129Z,99598.05
2023-02-11T03:29:26.066Z,99600.47
2023-02-11T03:32:12.434Z,99593.66
2023-02-11T03:34:49.868Z,99593.02
2023-02-11T03:37:28.060Z,99591.16
2023-02-11T03:40:10.404Z,99592.19
2023-02-11T03:42:45.756Z,99590.48
2023-02-11T03:45:24.562Z,99591.16
2023-02-11T03:48:02.341Z,99590.33
2023-02-11T03:50:33.982Z,99594.28
2023-02-11T03:53:03.904Z,99592.07
2023-02-11T03:55:40.278Z,99595.81
2023-02-11T03:58:09.645Z,99587.13
2023-02-11T04:00:41.245Z,99581.49
2023-02-11T04:03:15.130Z,99584.39
2023-02-11T04:05:43.749Z,99580.84
2023-02-11T04:08:19.517Z,99578.11
2023-02-11T04:10:48.094Z,99576.75
2023-02-11T04:13:19.563Z,99571.27
2023-02-11T04:15:50.998Z,99569.06
2023-02-11T04:18:26.602Z,99569.23
2023-02-11T04:20:55.175Z,99570.66
2023-02-11T04:23:27.214Z,99567.99
2023-02-11T04:25:56.113Z,99564.26
2023-02-11T04:28:29.655Z,99558.80
2023-02-11T04:30:59.168Z,99559.52
2023-02-11T04:33:28.051Z,99559.50
2023-02-11T04:35:59.773Z,99557.80
2023-02-11T04:38:31.443Z,99558.17
2023-02-11T04:41:00.729Z,99557.01
2023-02-11T04:43:32.372Z,99557.70
2023-02-11T04:46:00.998Z,99555.01
2023-02-11T04:48:29.679Z,99551.08
2023-02-11T04:50:58.536Z,99548.91
2023-02-11T04:53:27.229Z,99544.51
2023-02-11T04:55:55.851Z,99541.65
2023-02-11T04:58:24.654Z,99542.02
2023-02-11T05:00:55.889Z,99546.98
2023-02-11T05:03:26.029Z,99548.71
2023-02-11T05:05:55.570Z,99549.23
2023-02-11T05:08:26.488Z,99550.45
2023-02-11T05:10:55.060Z,99555.27
2023-02-11T05:13:23.654Z,99559.18
2023-02-11T05:15:52.464Z,99561.27
2023-02-11T05:18:22.311Z,99563.82
2023-02-11T05:20:50.865Z,99572.18
2023-02-11T05:23:21.957Z,99572.18
2023-02-11T05:25:50.768Z,99569.80
2023-02-11T05:28:27.269Z,99569.64
2023-02-11T05:30:58.574Z,99568.27
2023-02-11T05:33:27.224Z,99569.48
2023-02-11T05:36:04.524Z,99568.61
2023-02-11T05:38:34.097Z,99560.44
2023-02-11T05:41:07.804Z,99561.81
2023-02-11T05:43:36.781Z,99564.36
2023-02-11T05:46:07.241Z,99557.88
2023-02-11T05:48:36.361Z,99555.52
2023-02-11T05:51:07.829Z,99552.15
2023-02-11T05:53:39.094Z,99549.93
2023-02-11T05:56:07.998Z,99552.48
2023-02-11T05:58:37.211Z,99554.72
2023-02-11T06:01:06.361Z,99554.05
2023-02-11T06:03:37.049Z,99549.79
2023-02-11T06:06:06.171Z,99550.30
2023-02-11T06:08:37.570Z,99552.68
2023-02-11T06:11:08.024Z,99549.29
2023-02-11T06:13:37.190Z,99552.16
2023-02-11T06:16:05.904Z,99553.35
2023-02-11T06:18:35.291Z,99552.33
2023-02-11T06:21:08.647Z,99554.36
2023-02-11T06:23:39.338Z,99557.04
2023-02-11T06:26:16.146Z,99561.28
2023-02-11T06:28:44.920Z,99558.55
2023-02-11T06:31:15.280Z,99557.63
2023-02-11T06:33:46.815Z,99557.25
2023-02-11T06:36:36.837Z,99554.48
2023-02-11T06:39:12.422Z,99557.69
2023-02-11T06:41:43.311Z,99554.06
2023-02-11T06:44:12.393Z,99550.20
2023-02-11T06:46:41.799Z,99550.66
2023-02-11T06:49:10.596Z,99548.09
2023-02-11T06:51:40.738Z,99547.59
2023-02-11T06:54:11.717Z,99549.61
2023-02-11T06:56:41.769Z,99543.98
2023-02-11T06:59:16.557Z,99543.16
2023-02-11T07:01:46.002Z,99539.41
2023-02-11T07:04:15.658Z,99538.02
2023-02-11T07:06:45.532Z,99536.09
2023-02-11T07:09:13.936Z,99537.19
2023-02-11T07:11:43.205Z,99541.03
2023-02-11T07:14:13.635Z,99545.52
2023-02-11T07:16:42.429Z,99544.76
2023-02-11T07:19:11.121Z,99550.07
2023-02-11T07:21:40.889Z,99550.07
2023-02-11T07:24:11.358Z,99540.02
2023-02-11T07:26:42.204Z,99537.87
2023-02-11T07:29:10.736Z,99544.12
2023-02-11T07:31:39.361Z,99545.13
2023-02-11T07:34:07.850Z,99547.86
2023-02-11T07:36:38.383Z,99546.89
2023-02-11T07:39:07.498Z,99549.27
2023-02-11T07:41:37.876Z,99545.56
2023-02-11T07:44:07.707Z,99537.98
2023-02-11T07:46:37.833Z,99533.77
2023-02-11T07:49:07.105Z,99529.39
2023-02-11T07:51:37.142Z,99528.87
2023-02-11T07:54:08.248Z,99533.84
2023-02-11T07:56:39.460Z,99530.79
2023-02-11T07:59:08.567Z,99529.57
2023-02-11T08:01:38.498Z,99527.54
2023-02-11T08:04:06.998Z,99528.42
2023-02-11T08:06:40.232Z,99518.14
2023-02-11T08:09:13.400Z,99511.90
2023-02-11T08:11:41.885Z,99513.71
2023-02-11T08:14:11.443Z,99510.40
2023-02-11T08:16:40.498Z,99506.90
2023-02-11T08:19:13.471Z,99503.15
2023-02-11T08:21:43.105Z,99495.49
2023-02-11T08:24:12.462Z,99485.58
2023-02-11T08:26:42.835Z,99481.04
2023-02-11T08:29:17.144Z,99482.51
2023-02-11T08:31:51.114Z,99484.69
2023-02-11T08:34:22.898Z,99485.21
2023-02-11T08:36:51.424Z,99482.17
2023-02-11T08:39:22.606Z,99475.70
2023-02-11T08:41:54.467Z,99466.45
2023-02-11T08:44:27.482Z,99466.17
2023-02-11T08:46:56.920Z,99467.34
2023-02-11T08:49:28.056Z,99465.39
2023-02-11T08:52:03.931Z,99465.48
2023-02-11T08:54:38.163Z,99460.10
2023-02-11T08:57:12.353Z,99455.63
2023-02-11T08:59:40.885Z,99454.33
2023-02-11T09:02:14.263Z,99458.72
2023-02-11T09:04:42.930Z,99458.29
2023-02-11T09:07:15.214Z,99446.21
2023-02-11T09:09:43.893Z,99441.96
2023-02-11T09:12:18.306Z,99432.52
2023-02-11T09:14:49.666Z,99433.28
2023-02-11T09:17:23.975Z,99435.17
2023-02-11T09:20:00.228Z,99435.36
2023-02-11T09:22:31.283Z,99431.48
2023-02-11T09:25:03.141Z,99437.43
2023-02-11T09:27:31.715Z,99436.42
2023-02-11T09:30:00.316Z,99436.02
2023-02-11T09:32:29.111Z,99434.59
2023-02-11T09:35:00.525Z,99428.12
2023-02-11T09:37:29.062Z,99428.81
2023-02-11T09:40:00.592Z,99432.18
2023-02-11T09:42:47.263Z,99430.18
2023-02-11T09:45:20.792Z,99426.17
2023-02-11T09:48:01.043Z,99419.21
2023-02-11T09:50:36.204Z,99414.58
2023-02-11T09:53:23.928Z,99412.27
2023-02-11T09:55:59.897Z,99416.70
2023-02-11T09:58:39.336Z,99416.38
2023-02-11T10:01:30.521Z,99410.96
2023-02-11T10:07:56.748Z,99408.84
2023-02-11T10:10:47.900Z,99406.27
2023-02-11T10:13:33.792Z,99391.92
2023-02-11T10:16:26.648Z,99389.90
2023-02-11T10:19:08.887Z,99390.17
2023-02-11T10:22:19.782Z,99385.25
2023-02-11T10:25:00.555Z,99381.52
2023-02-11T10:27:36.673Z,99387.09
2023-02-11T10:30:31.381Z,99386.41
2023-02-11T10:33:24.445Z,99390.88
2023-02-11T10:35:56.351Z,99386.17
2023-02-11T10:38:33.268Z,99372.48
2023-02-11T10:41:04.582Z,99372.64
2023-02-11T10:43:41.678Z,99366.90
2023-02-11T10:46:36.428Z,99366.10
2023-02-11T10:49:07.614Z,99356.92
2023-02-11T10:51:37.917Z,99355.89
2023-02-11T10:54:08.464Z,99345.94
2023-02-11T10:56:40.985Z,99337.16
2023-02-11T10:59:29.808Z,99331.77
2023-02-11T11:02:20.696Z,99331.03
2023-02-11T11:04:50.608Z,99318.84
2023-02-11T11:07:25.376Z,99309.84
2023-02-11T11:10:00.401Z,99302.26
2023-02-11T11:12:42.228Z,99299.84
2023-02-11T11:15:14.444Z,99292.88
2023-02-11T11:18:22.162Z,99282.49
2023-02-11T11:24:29.704Z,99276.92
2023-02-11T11:27:08.537Z,99272.24
2023-02-11T11:29:46.318Z,99264.33
2023-02-11T11:32:29.633Z,99258.11
2023-02-11T11:35:09.842Z,99248.06
2023-02-11T11:37:40.234Z,99241.83
2023-02-11T11:40:11.850Z,99241.23
2023-02-11T11:42:45.237Z,99241.78
2023-02-11T11:45:30.442Z,99243.41
2023-02-11T11:48:02.623Z,99238.55
2023-02-11T11:50:40.272Z,99232.84
2023-02-11T11:53:26.311Z,99232.02
2023-02-11T11:56:19.787Z,99230.40
2023-02-11T11:58:51.724Z,99229.57
2023-02-11T12:01:41.556Z,99228.00
2023-02-11T12:04:19.685Z,99222.55
2023-02-11T12:06:54.647Z,99216.58
2023-02-11T12:09:44.627Z,99209.95
2023-02-11T12:12:48.748Z,99203.30
2023-02-11T12:15:44.002Z,99202.92
2023-02-11T12:18:38.476Z,99200.38
2023-02-11T12:21:23.382Z,99189.89
2023-02-11T12:24:21.448Z,99176.53
2023-02-11T12:27:03.613Z,99175.55
2023-02-11T12:30:13.470Z,99175.46
2023-02-11T12:32:56.146Z,99179.95
2023-02-11T12:35:36.635Z,99175.36
2023-02-11T12:38:20.116Z,99170.90
2023-02-11T12:41:02.413Z,99174.65
2023-02-11T12:43:47.792Z,99176.02
2023-02-11T12:46:43.443Z,99176.64
2023-02-11T12:49:37.919Z,99171.21
2023-02-11T12:52:32.084Z,99168.61
2023-02-11T12:55:26.722Z,99156.75
2023-02-11T12:58:13.188Z,99152.02
2023-02-11T13:01:07.004Z,99148.29
2023-02-11T13:04:02.187Z,99144.69
2023-02-11T13:06:46.106Z,99142.88
2023-02-11T13:09:32.814Z,99138.96
2023-02-11T13:12:28.600Z,99132.79
2023-02-11T13:15:03.997Z,99128.96
2023-02-11T13:17:48.736Z,99129.36
2023-02-11T13:20:41.430Z,99126.61
2023-02-11T13:23:46.476Z,99118.14
2023-02-11T13:26:28.408Z,99113.14
2023-02-11T13:29:41.462Z,99110.35
2023-02-11T13:32:16.088Z,99103.04
2023-02-11T13:34:45.368Z,99103.15
2023-02-11T13:37:36.410Z,99101.85
2023-02-11T13:40:24.388Z,99104.84
2023-02-11T13:42:59.264Z,99106.27
2023-02-11T13:48:55.361Z,99106.10
2023-02-11T13:51:58.289Z,99108.21
2023-02-11T13:54:32.411Z,99106.44
2023-02-11T13:57:23.067Z,99104.40
2023-02-11T14:00:00.815Z,99102.75
2023-02-11T14:02:55.600Z,99103.20
2023-02-11T14:05:43.001Z,99099.42
2023-02-11T14:08:37.558Z,99089.17
2023-02-11T14:11:42.408Z,99080.95
2023-02-11T14:14:29.143Z,99076.04
2023-02-11T14:17:03.647Z,99067.90
2023-02-11T14:19:46.581Z,99061.48
2023-02-11T14:22:44.784Z,99060.03
2023-02-11T14:25:25.617Z,99063.56
2023-02-11T14:28:00.265Z,99055.92
2023-02-11T14:30:39.545Z,99058.84
2023-02-11T14:33:23.514Z,99057.23
2023-02-11T14:36:01.260Z,99048.58
2023-02-11T14:38:44.924Z,99045.98
2023-02-11T14:41:33.309Z,99046.59
2023-02-11T14:44:07.191Z,99046.20
2023-02-11T14:46:36.904Z,99047.99
2023-02-11T14:49:06.482Z,99051.23
2023-02-11T14:54:51.657Z,99056.48
2023-02-11T14:57:22.360Z,99051.66
2023-02-11T15:00:02.769Z,99053.56
2023-02-11T15:02:38.951Z,99053.10
2023-02-11T15:05:16.621Z,99053.75
2023-02-11T15:07:52.434Z,99054.46
2023-02-11T15:10:35.675Z,99061.02
2023-02-11T15:13:05.241Z,99065.09
2023-02-11T15:15:44.309Z,99063.36
2023-02-11T15:18:29.197Z,99062.27
2023-02-11T15:21:03.408Z,99064.41
2023-02-11T15:23:32.827Z,99067.62
2023-02-11T15:29:41.866Z,99059.23
2023-02-11T15:32:17.339Z,99060.67
2023-02-11T15:34:50.957Z,99056.33
2023-02-11T15:37:29.907Z,99053.91
2023-02-11T15:40:23.104Z,99048.45
2023-02-11T15:43:04.528Z,99042.65
2023-02-11T15:45:43.544Z,99036.17
2023-02-11T15:48:17.813Z,99025.67
2023-02-11T15:50:55.803Z,99019.60
2023-02-11T15:53:42.506Z,99017.20
2023-02-11T15:56:21.086Z,99025.48
2023-02-11T15:58:52.616Z,99029.71
2023-02-11T16:04:58.300Z,99015.58
2023-02-11T16:07:50.021Z,99009.55
2023-02-11T16:13:47.497Z,99003.79
2023-02-11T16:16:24.709Z,99002.54
2023-02-11T16:19:05.431Z,98999.55
2023-02-11T16:21:45.517Z,99003.16
2023-02-11T16:24:25.158Z,99002.68
2023-02-11T16:27:07.247Z,99002.79
2023-02-11T16:29:41.966Z,99003.83
2023-02-11T16:32:25.306Z,99005.14
2023-02-11T16:35:02.954Z,99004.35
2023-02-11T16:37:37.960Z,99009.46
2023-02-11T16:40:12.094Z,99009.52
2023-02-11T16:42:41.658Z,99009.64
2023-02-11T16:45:15.434Z,99008.05
2023-02-11T16:47:44.207Z,99010.98
2023-02-11T16:50:24.459Z,99010.88
2023-02-11T16:52:59.707Z,99009.88
2023-02-11T16:55:32.623Z,99003.39
2023-02-11T16:58:06.705Z,98997.57
2023-02-11T17:00:41.161Z,98995.07
2023-02-11T17:03:18.425Z,98993.95
2023-02-11T17:05:55.417Z,98997.44
2023-02-11T17:08:30.302Z,99002.39
2023-02-11T17:11:00.363Z,99010.55
2023-02-11T17:13:39.772Z,99008.31
2023-02-11T17:16:28.321Z,99005.06
2023-02-11T17:18:57.634Z,98999.52
2023-02-11T17:21:29.941Z,98998.49
2023-02-11T17:24:02.109Z,98995.66
2023-02-11T17:26:37.107Z,98995.98
2023-02-11T17:29:09.780Z,98986.44
2023-02-11T17:31:45.431Z,98980.16
2023-02-11T17:34:20.227Z,98958.55
2023-02-11T17:36:49.029Z,98945.95
2023-02-11T17:39:22.773Z,98931.45
2023-02-11T17:41:51.676Z,98941.71
2023-02-11T17:44:26.660Z,98954.34
2023-02-11T17:46:56.360Z,98960.92
2023-02-11T17:49:30.733Z,98969.93
2023-02-11T17:52:06.703Z,98978.92
2023-02-11T17:54:41.634Z,98983.18
2023-02-11T17:57:13.260Z,98987.50
2023-02-11T17:59:41.940Z,98991.87
2023-02-11T18:02:15.567Z,98986.88
2023-02-11T18:04:47.116Z,98989.96
2023-02-11T18:07:15.872Z,98992.58
2023-02-11T18:09:46.938Z,98992.16
2023-02-11T18:12:18.589Z,98995.02
2023-02-11T18:14:47.729Z,98995.92
2023-02-11T18:17:23.554Z,98998.83
2023-02-11T18:19:59.256Z,99001.42
2023-02-11T18:22:36.774Z,99004.56
2023-02-11T18:25:14.875Z,98993.23
2023-02-11T18:27:43.647Z,98988.70
2023-02-11T18:30:24.491Z,98982.66
2023-02-11T18:32:56.722Z,98985.23
2023-02-11T18:35:28.002Z,98986.16
2023-02-11T18:38:07.101Z,98989.27
2023-02-11T18:40:47.729Z,98986.20
2023-02-11T18:43:17.202Z,98984.00
2023-02-11T18:45:47.536Z,98982.34
2023-02-11T18:48:18.029Z,98980.52
2023-02-11T18:50:46.969Z,98982.55
2023-02-11T18:56:43.338Z,98987.39
2023-02-11T18:59:19.885Z,98981.66
2023-02-11T19:01:53.435Z,98977.84
2023-02-11T19:04:27.383Z,98974.35
2023-02-11T19:07:03.394Z,98977.15
2023-02-11T19:09:34.343Z,98981.67
2023-02-11T19:12:04.905Z,98985.13
2023-02-11T19:14:40.513Z,98986.89
2023-02-11T19:17:31.613Z,98987.42
2023-02-11T19:20:00.290Z,98988.52
2023-02-11T19:22:34.045Z,98986.16
2023-02-11T19:25:12.013Z,98984.80
2023-02-11T19:27:43.505Z,98979.41
2023-02-11T19:30:19.792Z,98973.53
2023-02-11T19:32:53.422Z,98976.72
2023-02-11T19:35:36.633Z,98981.56
2023-02-11T19:38:10.804Z,98983.55
2023-02-11T19:40:42.829Z,98981.86
2023-02-11T19:43:15.290Z,98981.79
2023-02-11T19:45:44.177Z,98977.77
2023-02-11T19:48:16.189Z,98966.84
2023-02-11T19:50:50.152Z,98958.31
2023-02-11T19:53:25.036Z,98964.02
2023-02-11T19:55:53.947Z,98959.11
2023-02-11T19:58:25.713Z,98958.08
2023-02-11T20:00:55.855Z,98957.02
2023-02-11T20:03:27.509Z,98957.11
2023-02-11T20:05:56.124Z,98949.91
2023-02-11T20:08:30.292Z,98948.00
2023-02-11T20:11:12.085Z,98943.91
2023-02-11T20:13:45.806Z,98943.13
2023-02-11T20:16:36.863Z,98940.45
2023-02-11T20:19:21.717Z,98937.27
2023-02-11T20:22:09.098Z,98929.47
2023-02-11T20:24:41.432Z,98919.81
2023-02-11T20:27:11.762Z,98919.05
2023-02-11T20:29:42.536Z,98920.57
2023-02-11T20:32:11.308Z,98918.90
2023-02-11T20:34:40.125Z,98920.73
2023-02-11T20:37:10.115Z,98918.60
2023-02-11T20:39:41.159Z,98911.50
2023-02-11T20:42:22.070Z,98903.04
2023-02-11T20:44:56.951Z,98910.10
2023-02-11T20:47:25.681Z,98909.89
2023-02-11T20:49:55.894Z,98907.97
2023-02-11T20:52:24.447Z,98906.20
2023-02-11T20:54:56.018Z,98900.06
2023-02-11T20:57:27.503Z,98902.36
2023-02-11T21:00:05.392Z,98904.86
2023-02-11T21:02:39.506Z,98905.40
2023-02-11T21:05:13.576Z,98899.13
2023-02-11T21:07:45.501Z,98896.14
2023-02-11T21:10:14.317Z,98893.61
2023-02-11T21:12:42.878Z,98895.95
2023-02-11T21:15:13.636Z,98897.64
2023-02-11T21:17:42.302Z,98889.79
2023-02-11T21:20:11.359Z,98880.13
2023-02-11T21:22:39.980Z,98878.32
2023-02-11T21:25:08.740Z,98877.46
2023-02-11T21:27:43.346Z,98873.92
2023-02-11T21:30:13.335Z,98877.95
2023-02-11T21:32:42.064Z,98882.24
2023-02-11T21:35:10.767Z,98883.50
2023-02-11T21:37:39.285Z,98883.11
2023-02-11T21:40:08.698Z,98885.13
2023-02-11T21:42:37.381Z,98884.30
2023-02-11T21:45:07.125Z,98879.08
2023-02-11T21:47:35.869Z,98879.44
2023-02-11T21:50:04.608Z,98881.31
2023-02-11T21:52:33.454Z,98885.23
2023-02-11T21:55:01.933Z,98882.73
2023-02-11T21:57:31.158Z,98880.94
2023-02-11T21:59:59.666Z,98878.59
2023-02-11T22:02:28.317Z,98878.30
2023-02-11T22:04:59.393Z,98878.77
2023-02-11T22:07:28.320Z,98882.46
2023-02-11T22:09:57.022Z,98880.92
2023-02-11T22:12:28.197Z,98878.25
2023-02-11T22:14:57.556Z,98891.30
2023-02-11T22:17:28.411Z,98889.48
2023-02-11T22:19:57.505Z,98886.90
2023-02-11T22:22:26.506Z,98882.91
2023-02-11T22:24:55.561Z,98889.55
2023-02-11T22:27:24.102Z,98887.45
2023-02-11T22:29:53.227Z,98886.30
2023-02-11T22:32:23.706Z,98876.13
2023-02-11T22:34:53.545Z,98872.52
2023-02-11T22:37:25.113Z,98874.15
2023-02-11T22:39:53.673Z,98882.59
2023-02-11T22:42:22.374Z,98887.93
2023-02-11T22:44:51.023Z,98885.21
2023-02-11T22:47:19.607Z,98880.99
2023-02-11T22:49:48.178Z,98881.55
2023-02-11T22:52:16.977Z,98885.74
2023-02-11T22:54:45.672Z,98886.54
2023-02-11T22:57:14.148Z,98888.81
2023-02-11T22:59:42.674Z,98889.19
2023-02-11T23:02:11.354Z,98891.51
2023-02-11T23:04:48.366Z,98892.30
2023-02-11T23:07:19.405Z,98891.86
2023-02-11T23:09:47.997Z,98890.47
2023-02-11T23:12:16.627Z,98887.03
2023-02-11T23:14:45.921Z,98881.41
2023-02-11T23:17:19.730Z,98872.96
2023-02-11T23:19:48.283Z,98871.48
2023-02-11T23:22:16.912Z,98874.28
2023-02-11T23:24:45.435Z,98871.66
2023-02-11T23:27:13.996Z,98875.17
2023-02-11T23:29:45.561Z,98873.73
2023-02-11T23:32:19.469Z,98869.08
2023-02-11T23:34:48.118Z,98864.77
2023-02-11T23:37:16.761Z,98866.42
2023-02-11T23:39:45.261Z,98872.46
2023-02-11T23:42:16.839Z,98865.16
2023-02-11T23:44:45.484Z,98859.56
2023-02-11T23:47:18.677Z,98868.49
2023-02-11T23:49:47.266Z,98861.69
2023-02-11T23:52:17.918Z,98858.94
2023-02-11T23:54:48.377Z,98865.69
2023-02-11T23:57:16.924Z,98862.17
2023-02-11T23:59:49.145Z,98864.86
